Tuesday, January 22, 2019, 4:47 PM EST
Back to Local

KRME, Griffiss Airfield

Location: Rome, NY, United States Lat: 43.233
Local Time: 4:47 PM EST (21:47 GMT) Lon: -75.4
Time Zone: US/Eastern Elev: 505 ft

Show me the last for .
Show Coded

Time T Td Feel RH Dir Speed Gust Alt SLP Vis Weather Sky Remarks
2019-01-22 15:53 14 3 4 60 100° 7 - 30.57 30.61 10 OVC110 None
2019-01-22 14:53 13 2 - 60 - Calm - 30.60 30.63 10 CLR None
2019-01-22 13:53 9 2 2 72 310° 3 - 30.62 30.66 10 CLR None
2019-01-22 12:53 9 0 - 66 - Calm - 30.65 30.68 10 CLR 6-hr Precip Total (1pm): 0.00"
6-hr Min Temp (1pm): -20.0°F
6-hr Max Temp (1pm): 9.0°F
2019-01-22 12:13 4 -3 - 72 - Calm - 30.66 - 10 SCT014 None
2019-01-22 11:53 4 -3 - 72 - Calm - 30.68 30.71 10 OVC014 None
2019-01-22 11:46 3 -4 -4 71 240° 3 - 30.68 - 10 OVC013 None
2019-01-22 11:12 2 -6 -6 68 190° 3 - 30.68 - 10 OVC015 None
2019-01-22 10:53 2 -7 -8 65 130° 5 - 30.69 30.72 10 OVC014 None
2019-01-22 10:16 -2 -9 -12 71 110° 5 - 30.70 - 10 OVC015 None
2019-01-22 09:53 -4 -9 -15 78 140° 5 - 30.70 30.73 9 OVC013 1-hr Precip Total: Trace
6-hr Precip Total (10am): 0.00"
2019-01-22 09:20 -11 -14 - 85 - Calm - 30.70 - 10 OVC014 None
2019-01-22 08:53 -12 -15 - 85 - Calm - 30.70 30.74 10 OVC015 None
2019-01-22 07:53 -17 -21 - 81 - Calm - 30.69 30.73 10 BKN015 None
2019-01-22 06:53 -19 -23 -29 80 100° 3 - 30.65 30.70 10 CLR 6-hr Min Temp (7am): -20.0°F
6-hr Max Temp (7am): -2.0°F
2019-01-22 05:53 -15 -20 - 77 - Calm - 30.66 30.70 10 CLR None
2019-01-22 04:53 -19 -23 - 80 - Calm - 30.63 30.67 10 CLR None
2019-01-22 03:53 -12 -17 - 77 - Calm - 30.59 30.63 10 CLR Pressure rising rapidly
2019-01-22 02:53 -3 -12 -15 64 340° 6 - 30.56 30.60 10 CLR None
2019-01-22 01:53 -3 -10 - 71 - Calm - 30.54 30.58 10 CLR None
2019-01-22 00:53 -2 -9 - 71 - Calm - 30.51 30.55 10 CLR 6-hr Min Temp (1am): -7.1°F
6-hr Max Temp (1am): 1.0°F
2019-01-21 23:53 -1 -8 -13 71 300° 6 - 30.50 30.53 10 CLR 24-hr Min Temp (12am): -9.9°F
24-hr Max Temp (12am): 1.9°F
2019-01-21 22:53 -5 -9 -18 82 300° 6 - 30.47 30.51 10 CLR None
2019-01-21 21:53 -2 -8 -19 75 310° 10 - 30.43 30.47 10 CLR None
2019-01-21 20:53 1 -6 -17 71 290° 14 - 30.41 30.45 10 CLR None
2019-01-21 19:53 -4 -9 -21 78 310° 10 - 30.38 30.42 10 CLR None
2019-01-21 18:53 -5 -9 -20 82 310° 8 - 30.35 30.40 10 CLR 6-hr Precip Total (7pm): 0.00"
6-hr Min Temp (7pm): -6.0°F
6-hr Max Temp (7pm): 1.9°F
2019-01-21 17:53 1 -6 -15 71 290° 10 - 30.32 30.36 10 CLR None
2019-01-21 16:53 2 -8 -14 62 290° 10 - 30.30 30.34 10 CLR Peak wind: 32 mph (28 kts) from 310° at 07 min
1-hr Precip Total: Trace

Support USWX by starting your Amazon purchase here.